createdAt,value
2023-05-09T00:01:31.809Z,11.57
2023-05-09T00:03:59.805Z,10.82
2023-05-09T00:06:27.997Z,10.45
2023-05-09T00:08:55.942Z,11.23
2023-05-09T00:11:23.238Z,11.75
2023-05-09T00:13:51.234Z,11.85
2023-05-09T00:16:18.922Z,10.77
2023-05-09T00:18:47.594Z,11.43
2023-05-09T00:21:14.646Z,10.77
2023-05-09T00:23:41.717Z,10.63
2023-05-09T00:26:10.454Z,10.70
2023-05-09T00:28:39.140Z,11.90
2023-05-09T00:31:06.204Z,11.80
2023-05-09T00:33:33.215Z,12.20
2023-05-09T00:36:00.377Z,12.40
2023-05-09T00:38:27.383Z,12.10
2023-05-09T00:40:54.397Z,12.30
2023-05-09T00:43:21.733Z,12.27
2023-05-09T00:45:49.571Z,13.20
2023-05-09T00:48:16.952Z,11.88
2023-05-09T00:50:44.228Z,13.63
2023-05-09T00:53:11.959Z,12.95
2023-05-09T00:55:39.137Z,12.35
2023-05-09T00:58:06.375Z,11.57
2023-05-09T01:00:33.768Z,13.40
2023-05-09T01:03:01.573Z,14.32
2023-05-09T01:05:40.778Z,14.18
2023-05-09T01:08:18.152Z,14.63
2023-05-09T01:11:09.650Z,12.40
2023-05-09T01:13:36.631Z,13.10
2023-05-09T01:16:16.786Z,12.60
2023-05-09T01:19:00.371Z,12.73
2023-05-09T01:21:30.634Z,12.18
2023-05-09T01:24:16.410Z,13.15
2023-05-09T01:27:07.534Z,12.82
2023-05-09T01:29:39.511Z,12.25
2023-05-09T01:32:10.913Z,12.30
2023-05-09T01:34:40.131Z,12.80
2023-05-09T01:37:07.511Z,12.25
2023-05-09T01:39:38.677Z,12.73
2023-05-09T01:42:08.537Z,12.48
2023-05-09T01:44:39.255Z,13.13
2023-05-09T01:47:07.920Z,11.52
2023-05-09T01:49:37.902Z,11.40
2023-05-09T01:52:09.131Z,12.40
2023-05-09T01:54:38.850Z,13.27
2023-05-09T01:57:08.445Z,12.50
2023-05-09T01:59:36.558Z,13.32
2023-05-09T02:02:04.732Z,11.85
2023-05-09T02:04:34.022Z,12.52
2023-05-09T02:07:02.756Z,12.95
2023-05-09T02:09:29.899Z,13.50
2023-05-09T02:11:56.919Z,15.00
2023-05-09T02:14:24.157Z,15.57
2023-05-09T02:16:51.604Z,14.25
2023-05-09T02:19:18.822Z,15.07
2023-05-09T02:21:46.015Z,15.25
2023-05-09T02:24:13.093Z,16.10
2023-05-09T02:26:41.002Z,14.40
2023-05-09T02:29:08.800Z,16.70
2023-05-09T02:31:37.124Z,14.80
2023-05-09T02:34:05.614Z,15.57
2023-05-09T02:36:35.365Z,15.85
2023-05-09T02:39:02.843Z,18.05
2023-05-09T02:41:30.924Z,17.67
2023-05-09T02:43:57.932Z,15.68
2023-05-09T02:46:24.998Z,17.15
2023-05-09T02:48:52.717Z,16.27
2023-05-09T02:51:20.102Z,15.68
2023-05-09T02:53:47.160Z,15.43
2023-05-09T02:56:14.244Z,15.40
2023-05-09T02:58:41.285Z,16.63
2023-05-09T03:01:08.394Z,15.82
2023-05-09T03:03:35.626Z,17.42
2023-05-09T03:06:04.891Z,16.92
2023-05-09T03:08:32.022Z,16.13
2023-05-09T03:10:59.109Z,17.55
2023-05-09T03:13:26.459Z,15.73
2023-05-09T03:15:53.612Z,16.40
2023-05-09T03:18:20.908Z,16.98
2023-05-09T03:20:47.921Z,17.38
2023-05-09T03:23:15.193Z,16.08
2023-05-09T03:25:42.240Z,16.52
2023-05-09T03:28:09.278Z,17.98
2023-05-09T03:30:36.835Z,17.17
2023-05-09T03:33:07.910Z,16.23
2023-05-09T03:35:34.917Z,15.43
2023-05-09T03:38:02.679Z,16.17
2023-05-09T03:40:29.752Z,16.20
2023-05-09T03:43:05.513Z,15.88
2023-05-09T03:45:32.827Z,17.05
2023-05-09T03:48:00.377Z,15.63
2023-05-09T03:50:27.478Z,14.75
2023-05-09T03:52:57.523Z,13.57
2023-05-09T03:55:25.056Z,13.32
2023-05-09T03:57:52.088Z,13.82
2023-05-09T04:00:19.705Z,14.00
2023-05-09T04:02:54.000Z,13.25
2023-05-09T04:05:33.811Z,13.60
2023-05-09T04:08:01.615Z,12.27
2023-05-09T04:10:30.232Z,13.15
2023-05-09T04:12:57.626Z,12.65
2023-05-09T04:15:24.810Z,12.52
2023-05-09T04:17:51.902Z,11.57
2023-05-09T04:20:18.983Z,12.85
2023-05-09T04:22:47.035Z,11.95
2023-05-09T04:25:17.133Z,11.70
2023-05-09T04:27:45.950Z,11.05
2023-05-09T04:30:13.339Z,11.23
2023-05-09T04:32:45.854Z,10.90
2023-05-09T04:35:14.312Z,9.20
2023-05-09T04:37:45.583Z,8.18
2023-05-09T04:40:13.530Z,7.88
2023-05-09T04:42:47.711Z,8.13
2023-05-09T04:45:15.793Z,8.57
2023-05-09T04:47:44.079Z,7.50
2023-05-09T04:50:11.662Z,6.68
2023-05-09T04:52:38.710Z,5.07
2023-05-09T04:55:06.506Z,4.50
2023-05-09T04:57:38.615Z,4.43
2023-05-09T05:00:11.676Z,5.40
2023-05-09T05:02:39.575Z,4.60
2023-05-09T05:05:12.139Z,4.22
2023-05-09T05:07:42.381Z,4.43
2023-05-09T05:10:11.518Z,3.63
2023-05-09T05:12:41.014Z,4.82
2023-05-09T05:15:11.571Z,4.10
2023-05-09T05:17:39.812Z,3.63
2023-05-09T05:20:10.989Z,3.58
2023-05-09T05:22:48.045Z,3.90
2023-05-09T05:25:17.859Z,3.75
2023-05-09T05:27:57.215Z,3.80
2023-05-09T05:30:29.942Z,3.97
2023-05-09T05:32:58.585Z,4.40
2023-05-09T05:35:28.393Z,3.55
2023-05-09T05:37:56.375Z,3.67
2023-05-09T05:40:23.496Z,3.50
2023-05-09T05:42:52.565Z,3.88
2023-05-09T05:45:20.246Z,4.40
2023-05-09T05:47:51.089Z,3.95
2023-05-09T05:50:18.963Z,3.83
2023-05-09T05:52:46.167Z,3.28
2023-05-09T05:55:15.934Z,2.60
2023-05-09T05:57:43.214Z,3.08
2023-05-09T06:00:15.059Z,3.10
2023-05-09T06:02:50.069Z,2.63
2023-05-09T06:05:28.614Z,2.30
2023-05-09T06:07:55.610Z,2.47
2023-05-09T06:10:22.763Z,2.50
2023-05-09T06:12:49.937Z,2.53
2023-05-09T06:15:18.041Z,3.00
2023-05-09T06:17:48.525Z,2.22
2023-05-09T06:20:15.596Z,2.28
2023-05-09T06:22:42.657Z,1.60
2023-05-09T06:25:10.593Z,2.10
2023-05-09T06:27:38.526Z,2.13
2023-05-09T06:30:21.423Z,2.00
2023-05-09T06:32:52.216Z,2.40
2023-05-09T06:35:19.340Z,2.20
2023-05-09T06:37:48.433Z,2.40
2023-05-09T06:40:16.449Z,2.20
2023-05-09T06:42:43.556Z,4.40
2023-05-09T06:45:11.634Z,9.95
2023-05-09T06:47:38.749Z,3.72
2023-05-09T06:50:06.439Z,3.10
2023-05-09T06:52:33.499Z,2.47
2023-05-09T06:55:00.607Z,2.50
2023-05-09T06:57:27.933Z,2.20
2023-05-09T06:59:54.989Z,2.28
2023-05-09T07:02:22.144Z,2.08
2023-05-09T07:04:49.305Z,2.00
2023-05-09T07:07:16.455Z,2.25
2023-05-09T07:09:43.636Z,2.00
2023-05-09T07:12:10.750Z,2.30
2023-05-09T07:14:38.346Z,2.30
2023-05-09T07:17:18.261Z,2.50
2023-05-09T07:19:49.560Z,1.90
2023-05-09T07:22:16.553Z,2.00
2023-05-09T07:24:46.677Z,1.90
2023-05-09T07:27:14.231Z,1.80
2023-05-09T07:29:41.323Z,2.25
2023-05-09T07:32:09.264Z,2.20
2023-05-09T07:34:36.760Z,1.90
2023-05-09T07:37:03.952Z,2.20
2023-05-09T07:39:31.107Z,1.85
2023-05-09T07:41:58.467Z,2.00
2023-05-09T07:44:25.896Z,2.10
2023-05-09T07:46:55.508Z,2.17
2023-05-09T07:49:22.729Z,2.10
2023-05-09T07:51:49.823Z,2.20
2023-05-09T07:54:16.978Z,2.08
2023-05-09T07:56:44.101Z,2.00
2023-05-09T07:59:12.420Z,1.90
2023-05-09T08:01:39.789Z,2.22
2023-05-09T08:04:09.206Z,2.50
2023-05-09T08:06:36.815Z,2.28
2023-05-09T08:09:04.938Z,2.00
2023-05-09T08:11:36.185Z,1.77
2023-05-09T08:14:03.568Z,1.95
2023-05-09T08:16:31.164Z,2.17
2023-05-09T08:18:58.385Z,2.10
2023-05-09T08:21:26.666Z,1.80
2023-05-09T08:23:53.980Z,2.15
2023-05-09T08:26:22.775Z,2.20
2023-05-09T08:28:50.013Z,2.00
2023-05-09T08:31:17.250Z,1.80
2023-05-09T08:33:44.458Z,1.85
2023-05-09T08:36:11.703Z,2.05
2023-05-09T08:38:40.721Z,2.00
2023-05-09T08:41:07.993Z,1.90
2023-05-09T08:43:35.839Z,2.20
2023-05-09T08:46:08.740Z,2.10
2023-05-09T08:48:39.127Z,2.22
2023-05-09T08:51:07.211Z,2.00
2023-05-09T08:53:34.949Z,1.90
2023-05-09T08:56:04.024Z,1.83
2023-05-09T08:58:32.096Z,1.88
2023-05-09T09:01:01.590Z,1.73
2023-05-09T09:03:28.958Z,1.90
2023-05-09T09:05:56.743Z,1.90
2023-05-09T09:08:25.232Z,1.95
2023-05-09T09:10:52.929Z,1.90
2023-05-09T09:13:22.076Z,1.88
2023-05-09T09:15:49.762Z,2.08
2023-05-09T09:18:22.279Z,1.80
2023-05-09T09:21:00.039Z,2.38
2023-05-09T09:23:29.296Z,2.38
2023-05-09T09:26:01.376Z,2.13
2023-05-09T09:28:29.057Z,2.17
2023-05-09T09:30:56.372Z,2.35
2023-05-09T09:33:25.312Z,2.10
2023-05-09T09:35:53.854Z,2.50
2023-05-09T09:38:22.055Z,1.90
2023-05-09T09:40:52.511Z,2.15
2023-05-09T09:43:20.005Z,4.30
2023-05-09T09:45:51.479Z,3.00
2023-05-09T09:48:18.865Z,2.45
2023-05-09T09:50:48.485Z,2.17
2023-05-09T09:53:16.462Z,2.50
2023-05-09T09:55:52.152Z,2.00
2023-05-09T09:58:25.141Z,2.20
2023-05-09T10:01:16.902Z,2.15
2023-05-09T10:03:48.318Z,2.00
2023-05-09T10:06:17.068Z,2.00
2023-05-09T10:08:49.098Z,2.10
2023-05-09T10:11:16.608Z,2.05
2023-05-09T10:13:44.722Z,2.20
2023-05-09T10:16:13.626Z,1.90
2023-05-09T10:18:43.262Z,1.92
2023-05-09T10:21:15.343Z,2.20
2023-05-09T10:23:48.681Z,1.83
2023-05-09T10:26:23.106Z,1.83
2023-05-09T10:28:55.840Z,2.00
2023-05-09T10:31:27.084Z,1.90
2023-05-09T10:33:56.044Z,2.17
2023-05-09T10:36:26.528Z,2.10
2023-05-09T10:38:55.555Z,2.10
2023-05-09T10:41:23.888Z,2.78
2023-05-09T10:43:51.510Z,2.35
2023-05-09T10:46:19.436Z,2.70
2023-05-09T10:48:48.984Z,2.88
2023-05-09T10:51:17.552Z,2.13
2023-05-09T10:53:49.876Z,2.30
2023-05-09T10:56:29.886Z,2.30
2023-05-09T10:58:57.492Z,2.80
2023-05-09T11:01:37.580Z,2.25
2023-05-09T11:04:23.937Z,2.45
2023-05-09T11:06:54.006Z,2.00
2023-05-09T11:09:34.654Z,2.90
2023-05-09T11:12:02.366Z,2.28
2023-05-09T11:14:49.564Z,2.50
2023-05-09T11:17:22.947Z,2.45
2023-05-09T11:19:50.469Z,2.47
2023-05-09T11:22:32.828Z,2.55
2023-05-09T11:25:08.144Z,2.10
2023-05-09T11:27:49.976Z,2.30
2023-05-09T11:30:19.843Z,2.10
2023-05-09T11:32:52.473Z,2.28
2023-05-09T11:35:21.603Z,2.80
2023-05-09T11:37:54.804Z,2.30
2023-05-09T11:40:24.211Z,2.00
2023-05-09T11:42:58.362Z,2.40
2023-05-09T11:45:28.775Z,2.30
2023-05-09T11:48:01.223Z,2.10
2023-05-09T11:50:28.771Z,2.22
2023-05-09T11:52:56.511Z,2.20
2023-05-09T11:55:25.666Z,2.38
2023-05-09T11:57:54.491Z,2.20
2023-05-09T12:00:23.813Z,2.33
2023-05-09T12:02:51.823Z,2.17
2023-05-09T12:05:21.354Z,2.10
2023-05-09T12:07:48.991Z,2.42
2023-05-09T12:10:23.364Z,2.20
2023-05-09T12:12:53.019Z,2.35
2023-05-09T12:15:21.791Z,2.53
2023-05-09T12:18:03.213Z,2.17
2023-05-09T12:20:48.148Z,2.40
2023-05-09T12:23:15.449Z,2.42
2023-05-09T12:25:56.905Z,2.30
2023-05-09T12:28:25.545Z,2.30
2023-05-09T12:30:54.033Z,2.10
2023-05-09T12:33:21.447Z,2.30
2023-05-09T12:36:00.856Z,2.22
2023-05-09T12:38:28.150Z,2.72
2023-05-09T12:41:03.967Z,2.53
2023-05-09T12:43:36.556Z,2.42
2023-05-09T12:46:04.600Z,2.20
2023-05-09T12:48:38.431Z,2.10
2023-05-09T12:51:08.359Z,2.78
2023-05-09T12:53:42.375Z,2.30
2023-05-09T12:56:17.331Z,2.40
2023-05-09T12:58:54.212Z,2.47
2023-05-09T13:01:27.917Z,2.50
2023-05-09T13:04:06.135Z,2.60
2023-05-09T13:06:34.911Z,3.63
2023-05-09T13:09:05.847Z,3.20
2023-05-09T13:11:33.370Z,3.20
2023-05-09T13:14:00.565Z,2.83
2023-05-09T13:16:28.198Z,3.47
2023-05-09T13:18:55.499Z,2.55
2023-05-09T13:21:22.631Z,2.67
2023-05-09T13:23:51.296Z,2.60
2023-05-09T13:26:18.600Z,2.47
2023-05-09T13:28:45.826Z,3.22
2023-05-09T13:31:12.862Z,3.15
2023-05-09T13:33:40.209Z,2.65
2023-05-09T13:36:07.562Z,2.53
2023-05-09T13:38:38.865Z,2.78
2023-05-09T13:41:10.070Z,2.50
2023-05-09T13:43:39.228Z,2.63
2023-05-09T13:46:06.587Z,2.83
2023-05-09T13:48:33.709Z,2.33
2023-05-09T13:51:01.529Z,2.50
2023-05-09T13:53:28.781Z,2.58
2023-05-09T13:55:55.819Z,2.13
2023-05-09T13:58:23.032Z,2.60
2023-05-09T14:00:50.422Z,2.33
2023-05-09T14:03:17.718Z,2.55
2023-05-09T14:05:45.042Z,2.70
2023-05-09T14:08:12.369Z,2.78
2023-05-09T14:10:39.432Z,2.55
2023-05-09T14:13:08.532Z,2.75
2023-05-09T14:15:35.999Z,3.67
2023-05-09T14:18:03.356Z,2.85
2023-05-09T14:20:30.431Z,2.97
2023-05-09T14:23:00.721Z,2.92
2023-05-09T14:25:28.024Z,3.08
2023-05-09T14:27:55.159Z,2.92
2023-05-09T14:30:22.263Z,2.80
2023-05-09T14:32:49.341Z,2.70
2023-05-09T14:35:16.519Z,2.75
2023-05-09T14:37:43.766Z,2.72
2023-05-09T14:40:11.001Z,2.83
2023-05-09T14:42:38.165Z,2.80
2023-05-09T14:45:07.316Z,2.70
2023-05-09T14:47:34.476Z,2.78
2023-05-09T14:50:01.527Z,2.78
2023-05-09T14:52:31.416Z,2.95
2023-05-09T14:54:59.895Z,2.50
2023-05-09T14:57:27.018Z,3.00
2023-05-09T14:59:54.046Z,2.80
2023-05-09T15:02:21.098Z,2.47
2023-05-09T15:04:48.131Z,2.10
2023-05-09T15:07:15.243Z,2.85
2023-05-09T15:09:42.334Z,2.95
2023-05-09T15:12:09.515Z,2.80
2023-05-09T15:14:36.871Z,3.20
2023-05-09T15:17:04.458Z,2.20
2023-05-09T15:19:32.612Z,2.58
2023-05-09T15:22:00.651Z,2.78
2023-05-09T15:24:27.851Z,2.85
2023-05-09T15:26:54.892Z,3.15
2023-05-09T15:29:22.050Z,2.97
2023-05-09T15:31:49.219Z,2.35
2023-05-09T15:34:17.138Z,2.40
2023-05-09T15:36:44.336Z,2.60
2023-05-09T15:39:11.527Z,2.40
2023-05-09T15:41:38.580Z,2.38
2023-05-09T15:44:05.568Z,2.78
2023-05-09T15:46:33.265Z,2.63
2023-05-09T15:49:00.694Z,2.65
2023-05-09T15:51:30.208Z,2.95
2023-05-09T15:53:57.281Z,2.50
2023-05-09T15:56:24.406Z,2.65
2023-05-09T15:58:51.463Z,2.47
2023-05-09T16:01:18.749Z,2.40
2023-05-09T16:03:46.117Z,2.80
2023-05-09T16:06:13.563Z,3.20
2023-05-09T16:08:40.764Z,2.72
2023-05-09T16:11:08.093Z,2.60
2023-05-09T16:13:36.049Z,3.63
2023-05-09T16:16:03.724Z,2.65
2023-05-09T16:18:30.911Z,2.95
2023-05-09T16:20:57.992Z,3.00
2023-05-09T16:23:26.078Z,2.75
2023-05-09T16:25:54.117Z,3.00
2023-05-09T16:28:23.649Z,2.80
2023-05-09T16:30:51.726Z,2.97
2023-05-09T16:33:18.812Z,3.17
2023-05-09T16:35:46.668Z,3.20
2023-05-09T16:38:13.861Z,3.42
2023-05-09T16:40:40.903Z,3.58
2023-05-09T16:43:07.958Z,3.30
2023-05-09T16:45:35.186Z,2.97
2023-05-09T16:48:02.605Z,3.25
2023-05-09T16:50:30.023Z,2.85
2023-05-09T16:52:57.126Z,3.40
2023-05-09T16:55:24.260Z,3.10
2023-05-09T16:57:51.306Z,3.25
2023-05-09T17:00:18.891Z,3.25
2023-05-09T17:02:46.010Z,3.40
2023-05-09T17:05:13.137Z,4.18
2023-05-09T17:07:40.155Z,4.00
2023-05-09T17:10:07.670Z,4.00
2023-05-09T17:12:35.310Z,4.22
2023-05-09T17:15:02.446Z,4.55
2023-05-09T17:17:32.130Z,4.25
2023-05-09T17:20:01.073Z,4.18
2023-05-09T17:22:30.982Z,4.25
2023-05-09T17:24:58.059Z,4.53
2023-05-09T17:27:25.844Z,5.05
2023-05-09T17:29:52.869Z,5.65
2023-05-09T17:32:19.923Z,5.50
2023-05-09T17:34:47.073Z,6.05
2023-05-09T17:37:14.214Z,5.97
2023-05-09T17:39:42.436Z,5.20
2023-05-09T17:42:10.335Z,5.45
2023-05-09T17:44:39.458Z,5.93
2023-05-09T17:47:06.685Z,6.32
2023-05-09T17:49:33.706Z,6.95
2023-05-09T17:52:01.478Z,6.50
2023-05-09T17:54:29.343Z,5.72
2023-05-09T17:56:59.305Z,5.82
2023-05-09T17:59:26.338Z,5.60
2023-05-09T18:01:54.423Z,5.78
2023-05-09T18:04:22.029Z,6.13
2023-05-09T18:06:50.009Z,5.75
2023-05-09T18:09:17.496Z,6.15
2023-05-09T18:11:44.721Z,6.28
2023-05-09T18:14:13.113Z,5.97
2023-05-09T18:16:40.247Z,6.35
2023-05-09T18:19:07.421Z,6.55
2023-05-09T18:21:34.546Z,6.20
2023-05-09T18:24:01.622Z,6.90
2023-05-09T18:26:28.859Z,6.72
2023-05-09T18:28:55.903Z,6.55
2023-05-09T18:31:22.891Z,6.88
2023-05-09T18:33:50.293Z,7.22
2023-05-09T18:36:17.305Z,6.40
2023-05-09T18:38:44.656Z,7.05
2023-05-09T18:41:12.858Z,7.10
2023-05-09T18:43:45.947Z,6.80
2023-05-09T18:46:18.104Z,6.88
2023-05-09T18:48:46.042Z,5.97
2023-05-09T18:51:13.273Z,7.00
2023-05-09T18:53:40.599Z,6.03
2023-05-09T18:56:08.978Z,6.65
2023-05-09T18:58:36.962Z,8.10
2023-05-09T19:01:04.691Z,6.93
2023-05-09T19:03:32.180Z,7.47
2023-05-09T19:06:00.075Z,7.43
2023-05-09T19:08:27.449Z,8.25
2023-05-09T19:10:54.718Z,7.40
2023-05-09T19:13:21.947Z,8.00
2023-05-09T19:15:49.201Z,7.25
2023-05-09T19:18:16.622Z,7.40
2023-05-09T19:20:43.821Z,7.50
2023-05-09T19:23:12.221Z,7.72
2023-05-09T19:25:39.357Z,8.35
2023-05-09T19:28:06.687Z,9.20
2023-05-09T19:30:34.250Z,8.57
2023-05-09T19:33:01.439Z,7.57
2023-05-09T19:35:28.417Z,8.30
2023-05-09T19:37:55.436Z,9.73
2023-05-09T19:40:22.543Z,9.27
2023-05-09T19:42:49.565Z,8.88
2023-05-09T19:45:16.724Z,9.10
2023-05-09T19:47:43.853Z,9.35
2023-05-09T19:50:11.174Z,8.85
2023-05-09T19:52:38.300Z,10.07
2023-05-09T19:55:06.147Z,9.75
2023-05-09T19:57:33.502Z,10.32
2023-05-09T20:00:00.572Z,9.68
2023-05-09T20:02:27.743Z,9.30
2023-05-09T20:04:54.827Z,9.68
2023-05-09T20:07:21.812Z,9.50
2023-05-09T20:09:48.921Z,9.52
2023-05-09T20:12:16.015Z,9.75
2023-05-09T20:14:44.375Z,11.02
2023-05-09T20:17:11.506Z,11.52
2023-05-09T20:19:38.768Z,12.73
2023-05-09T20:22:06.699Z,12.95
2023-05-09T20:24:33.796Z,12.95
2023-05-09T20:27:02.595Z,13.13
2023-05-09T20:29:29.640Z,11.63
2023-05-09T20:31:57.122Z,12.38
2023-05-09T20:34:24.859Z,11.82
2023-05-09T20:36:55.199Z,11.18
2023-05-09T20:39:23.286Z,13.00
2023-05-09T20:41:51.586Z,12.23
2023-05-09T20:44:19.309Z,10.95
2023-05-09T20:46:46.453Z,11.40
2023-05-09T20:49:13.994Z,10.88
2023-05-09T20:51:41.326Z,11.80
2023-05-09T20:54:08.555Z,11.93
2023-05-09T20:56:35.870Z,10.85
2023-05-09T20:59:04.457Z,10.70
2023-05-09T21:01:35.542Z,10.45
2023-05-09T21:04:05.898Z,10.80
2023-05-09T21:06:33.364Z,11.75
2023-05-09T21:09:00.606Z,10.68
2023-05-09T21:11:27.787Z,12.13
2023-05-09T21:13:54.800Z,13.88
2023-05-09T21:16:22.215Z,14.40
2023-05-09T21:18:49.270Z,16.08
2023-05-09T21:21:16.386Z,14.45
2023-05-09T21:23:43.521Z,14.50
2023-05-09T21:26:10.511Z,13.80
2023-05-09T21:28:37.560Z,13.43
2023-05-09T21:31:04.839Z,14.05
2023-05-09T21:33:31.936Z,13.93
2023-05-09T21:35:59.487Z,13.73
2023-05-09T21:38:26.543Z,13.30
2023-05-09T21:40:53.650Z,13.77
2023-05-09T21:43:20.667Z,13.75
2023-05-09T21:45:47.649Z,13.07
2023-05-09T21:48:14.740Z,12.73
2023-05-09T21:50:46.108Z,14.15
2023-05-09T21:53:14.387Z,13.20
2023-05-09T21:55:41.580Z,11.70
2023-05-09T21:58:08.672Z,10.95
2023-05-09T22:00:35.862Z,12.25
2023-05-09T22:03:03.196Z,11.68
2023-05-09T22:05:30.374Z,11.88
2023-05-09T22:07:57.377Z,10.75
2023-05-09T22:10:24.503Z,11.48
2023-05-09T22:12:51.648Z,13.75
2023-05-09T22:15:18.681Z,12.63
2023-05-09T22:17:45.968Z,13.23
2023-05-09T22:20:13.069Z,12.13
2023-05-09T22:22:40.341Z,12.05
2023-05-09T22:25:07.526Z,13.13
2023-05-09T22:27:34.661Z,13.55
2023-05-09T22:30:02.914Z,13.32
2023-05-09T22:32:32.794Z,12.40
2023-05-09T22:34:59.905Z,12.77
2023-05-09T22:37:26.998Z,12.55
2023-05-09T22:39:54.085Z,13.00
2023-05-09T22:42:21.117Z,12.68
2023-05-09T22:44:49.900Z,12.88
2023-05-09T22:47:17.034Z,13.05
2023-05-09T22:49:45.729Z,13.70
2023-05-09T22:52:13.101Z,12.68
2023-05-09T22:54:40.667Z,12.18
2023-05-09T22:57:07.730Z,11.68
2023-05-09T22:59:34.881Z,12.27
2023-05-09T23:02:01.913Z,13.38
2023-05-09T23:04:28.996Z,13.50
2023-05-09T23:06:56.270Z,12.70
2023-05-09T23:09:23.475Z,11.82
2023-05-09T23:11:50.497Z,11.20
2023-05-09T23:14:17.697Z,12.30
2023-05-09T23:16:44.788Z,12.45
2023-05-09T23:19:11.819Z,11.93
2023-05-09T23:21:38.900Z,12.63
2023-05-09T23:24:06.288Z,11.35
2023-05-09T23:26:33.538Z,12.30
2023-05-09T23:29:00.558Z,12.52
2023-05-09T23:31:27.614Z,12.15
2023-05-09T23:33:54.741Z,12.82
2023-05-09T23:36:21.882Z,12.90
2023-05-09T23:38:49.029Z,12.65
2023-05-09T23:41:16.129Z,12.38
2023-05-09T23:43:43.276Z,12.45
2023-05-09T23:46:10.288Z,11.85
2023-05-09T23:48:37.489Z,11.98
2023-05-09T23:51:04.721Z,13.90
2023-05-09T23:53:35.149Z,13.32
2023-05-09T23:56:03.004Z,12.32
2023-05-09T23:58:30.324Z,10.98
